createdAt,value
2023-03-13T00:01:44.283Z,-5.85
2023-03-13T00:04:13.378Z,-5.89
2023-03-13T00:06:42.973Z,-5.80
2023-03-13T00:09:13.756Z,-6.01
2023-03-13T00:11:42.796Z,-5.87
2023-03-13T00:14:11.886Z,-5.99
2023-03-13T00:16:40.802Z,-6.03
2023-03-13T00:19:09.941Z,-6.00
2023-03-13T00:21:38.882Z,-6.06
2023-03-13T00:24:08.506Z,-6.18
2023-03-13T00:26:37.348Z,-6.18
2023-03-13T00:29:06.114Z,-6.34
2023-03-13T00:31:35.066Z,-6.35
2023-03-13T00:34:05.263Z,-6.38
2023-03-13T00:36:36.182Z,-6.35
2023-03-13T00:39:07.535Z,-6.33
2023-03-13T00:41:39.149Z,-6.41
2023-03-13T00:44:08.909Z,-6.46
2023-03-13T00:46:38.161Z,-6.54
2023-03-13T00:49:07.646Z,-6.49
2023-03-13T00:51:36.592Z,-6.51
2023-03-13T00:54:05.511Z,-6.39
2023-03-13T00:56:35.161Z,-5.66
2023-03-13T00:59:04.463Z,-5.29
2023-03-13T01:01:36.827Z,-5.06
2023-03-13T01:04:12.192Z,-5.24
2023-03-13T01:06:43.639Z,-5.19
2023-03-13T01:09:16.208Z,-4.87
2023-03-13T01:11:46.717Z,-4.83
2023-03-13T01:14:18.555Z,-4.80
2023-03-13T01:16:48.773Z,-4.66
2023-03-13T01:19:18.257Z,-4.56
2023-03-13T01:21:47.851Z,-4.41
2023-03-13T01:24:17.725Z,-4.04
2023-03-13T01:26:46.811Z,-3.60
2023-03-13T01:29:17.536Z,-3.28
2023-03-13T01:31:46.380Z,-3.19
2023-03-13T01:34:15.184Z,-2.66
2023-03-13T01:36:44.611Z,-1.55
2023-03-13T01:39:13.346Z,-0.49
2023-03-13T01:41:42.058Z,0.03
2023-03-13T01:44:24.403Z,0.66
2023-03-13T01:46:54.937Z,1.13
2023-03-13T01:49:30.857Z,0.62
2023-03-13T01:52:10.116Z,-0.38
2023-03-13T01:54:57.635Z,-1.49
2023-03-13T01:57:31.357Z,-2.66
2023-03-13T02:00:14.292Z,-3.50
2023-03-13T02:02:49.361Z,-4.06
2023-03-13T02:05:21.810Z,-4.30
2023-03-13T02:08:15.570Z,-4.46
2023-03-13T02:10:54.484Z,-4.77
2023-03-13T02:13:23.619Z,-5.00
2023-03-13T02:15:53.131Z,-5.06
2023-03-13T02:18:24.173Z,-5.21
2023-03-13T02:21:01.085Z,-5.19
2023-03-13T02:23:36.007Z,-3.44
2023-03-13T02:26:05.040Z,-1.03
2023-03-13T02:28:39.698Z,0.70
2023-03-13T02:31:15.150Z,1.06
2023-03-13T02:33:45.552Z,0.89
2023-03-13T02:36:18.636Z,0.53
2023-03-13T02:38:57.410Z,0.93
2023-03-13T02:41:29.022Z,0.73
2023-03-13T02:43:59.915Z,0.84
2023-03-13T02:46:29.167Z,1.40
2023-03-13T02:48:58.062Z,0.84
2023-03-13T02:51:38.769Z,-0.84
2023-03-13T02:54:13.142Z,-2.33
2023-03-13T02:56:47.748Z,-3.21
2023-03-13T02:59:16.950Z,-3.96
2023-03-13T03:01:48.625Z,-4.51
2023-03-13T03:04:17.687Z,-4.77
2023-03-13T03:06:47.001Z,-4.80
2023-03-13T03:09:15.861Z,-3.53
2023-03-13T03:11:45.293Z,-1.33
2023-03-13T03:14:16.512Z,0.94
2023-03-13T03:16:47.986Z,2.42
2023-03-13T03:19:17.042Z,2.38
2023-03-13T03:21:46.153Z,1.18
2023-03-13T03:24:14.863Z,2.68
2023-03-13T03:26:43.627Z,3.24
2023-03-13T03:29:20.138Z,2.09
2023-03-13T03:31:52.451Z,0.75
2023-03-13T03:34:21.628Z,-0.15
2023-03-13T03:36:51.444Z,1.33
2023-03-13T03:39:20.211Z,1.71
2023-03-13T03:41:49.230Z,1.40
2023-03-13T03:44:18.094Z,0.41
2023-03-13T03:47:05.918Z,-0.95
2023-03-13T03:49:39.293Z,-1.81
2023-03-13T03:52:09.144Z,-1.04
2023-03-13T03:54:41.205Z,1.66
2023-03-13T03:57:09.988Z,3.38
2023-03-13T03:59:39.755Z,4.12
2023-03-13T04:02:11.139Z,3.13
2023-03-13T04:04:42.298Z,2.58
2023-03-13T04:07:22.121Z,1.44
2023-03-13T04:09:51.822Z,0.63
2023-03-13T04:12:30.506Z,-0.57
2023-03-13T04:14:59.670Z,-1.79
2023-03-13T04:17:28.933Z,-1.23
2023-03-13T04:19:57.873Z,-0.22
2023-03-13T04:22:26.658Z,0.41
2023-03-13T04:24:59.486Z,-0.15
2023-03-13T04:27:33.046Z,-1.15
2023-03-13T04:30:03.640Z,-2.02
2023-03-13T04:32:51.789Z,-1.24
2023-03-13T04:35:20.982Z,0.37
2023-03-13T04:38:08.934Z,1.24
2023-03-13T04:40:55.970Z,1.52
2023-03-13T04:43:44.796Z,0.54
2023-03-13T04:46:31.460Z,-0.95
2023-03-13T04:49:23.918Z,-2.22
2023-03-13T04:52:15.904Z,-3.15
2023-03-13T04:54:53.510Z,-3.74
2023-03-13T04:57:51.290Z,-4.21
2023-03-13T05:00:44.572Z,-3.64
2023-03-13T05:03:27.276Z,-1.88
2023-03-13T05:06:09.724Z,-1.06
2023-03-13T05:08:57.881Z,-0.27
2023-03-13T05:11:58.066Z,0.65
2023-03-13T05:14:46.309Z,0.04
2023-03-13T05:17:35.249Z,-0.39
2023-03-13T05:20:22.179Z,-0.66
2023-03-13T05:23:19.870Z,-0.78
2023-03-13T05:25:48.980Z,-0.97
2023-03-13T05:28:26.589Z,-1.17
2023-03-13T05:31:09.736Z,-1.35
2023-03-13T05:33:58.635Z,-0.39
2023-03-13T05:36:48.906Z,2.61
2023-03-13T05:39:33.384Z,4.36
2023-03-13T05:42:16.535Z,4.24
2023-03-13T05:45:01.756Z,2.96
2023-03-13T05:47:33.452Z,1.33
2023-03-13T05:50:40.357Z,1.04
2023-03-13T05:53:30.596Z,1.29
2023-03-13T05:56:19.499Z,1.01
2023-03-13T05:59:06.764Z,0.74
2023-03-13T06:02:06.205Z,0.88
2023-03-13T06:04:41.264Z,0.95
2023-03-13T06:07:10.122Z,0.12
2023-03-13T06:09:38.989Z,-0.03
2023-03-13T06:12:09.438Z,2.40
2023-03-13T06:14:38.790Z,4.99
2023-03-13T06:17:13.416Z,5.62
2023-03-13T06:19:42.279Z,4.25
2023-03-13T06:22:11.172Z,2.66
2023-03-13T06:24:39.978Z,2.69
2023-03-13T06:27:08.760Z,3.19
2023-03-13T06:29:37.510Z,3.06
2023-03-13T06:32:06.698Z,2.13
2023-03-13T06:34:36.102Z,0.90
2023-03-13T06:37:05.088Z,0.13
2023-03-13T06:39:34.592Z,-0.11
2023-03-13T06:42:03.401Z,-0.22
2023-03-13T06:44:32.347Z,-0.45
2023-03-13T06:47:01.371Z,-1.60
2023-03-13T06:49:30.200Z,-2.50
2023-03-13T06:51:59.769Z,-2.90
2023-03-13T06:54:28.848Z,-3.23
2023-03-13T06:56:57.645Z,-3.25
2023-03-13T06:59:26.542Z,-3.21
2023-03-13T07:01:55.814Z,-2.81
2023-03-13T07:04:24.913Z,-2.73
2023-03-13T07:06:53.827Z,-2.47
2023-03-13T07:09:22.786Z,-2.36
2023-03-13T07:11:51.650Z,-1.06
2023-03-13T07:14:20.402Z,0.21
2023-03-13T07:16:49.287Z,0.26
2023-03-13T07:19:18.403Z,1.85
2023-03-13T07:21:47.482Z,3.85
2023-03-13T07:24:16.537Z,3.09
2023-03-13T07:27:01.857Z,1.46
2023-03-13T07:29:33.547Z,0.21
2023-03-13T07:32:02.443Z,-0.87
2023-03-13T07:34:31.410Z,-1.72
2023-03-13T07:37:00.226Z,-2.48
2023-03-13T07:39:29.038Z,-3.04
2023-03-13T07:41:57.743Z,-2.80
2023-03-13T07:44:26.841Z,-1.93
2023-03-13T07:46:55.604Z,-1.41
2023-03-13T07:49:24.548Z,-0.93
2023-03-13T07:51:53.424Z,-0.51
2023-03-13T07:54:22.327Z,-0.51
2023-03-13T07:56:51.643Z,-0.62
2023-03-13T07:59:20.487Z,0.20
2023-03-13T08:01:49.854Z,1.57
2023-03-13T08:04:18.773Z,2.25
2023-03-13T08:06:47.738Z,2.02
2023-03-13T08:09:16.398Z,2.15
2023-03-13T08:11:45.115Z,2.24
2023-03-13T08:14:14.239Z,2.05
2023-03-13T08:16:43.301Z,1.21
2023-03-13T08:19:12.079Z,0.21
2023-03-13T08:21:40.868Z,-0.69
2023-03-13T08:24:11.932Z,-1.45
2023-03-13T08:26:42.792Z,-1.88
2023-03-13T08:29:14.308Z,-0.18
2023-03-13T08:31:52.275Z,1.49
2023-03-13T08:34:21.268Z,0.35
2023-03-13T08:36:50.074Z,-1.24
2023-03-13T08:39:20.742Z,-1.78
2023-03-13T08:41:49.792Z,-0.53
2023-03-13T08:44:20.970Z,1.11
2023-03-13T08:46:53.169Z,2.15
2023-03-13T08:49:21.973Z,2.53
2023-03-13T08:51:50.714Z,1.40
2023-03-13T08:54:19.620Z,0.27
2023-03-13T08:56:48.488Z,-0.60
2023-03-13T08:59:17.242Z,-1.27
2023-03-13T09:01:47.053Z,-2.16
2023-03-13T09:04:16.303Z,-2.95
2023-03-13T09:06:45.056Z,-3.48
2023-03-13T09:09:15.148Z,-3.94
2023-03-13T09:11:43.907Z,-4.35
2023-03-13T09:14:12.805Z,-4.66
2023-03-13T09:16:41.634Z,-4.88
2023-03-13T09:19:10.401Z,-5.10
2023-03-13T09:21:39.307Z,-5.39
2023-03-13T09:24:08.473Z,-5.70
2023-03-13T09:26:37.377Z,-5.72
2023-03-13T09:29:06.173Z,-5.72
2023-03-13T09:31:35.216Z,-5.69
2023-03-13T09:34:04.629Z,-5.78
2023-03-13T09:36:33.704Z,-5.82
2023-03-13T09:39:02.525Z,-5.78
2023-03-13T09:41:48.513Z,-5.78
2023-03-13T09:44:26.101Z,-5.43
2023-03-13T09:47:10.490Z,-4.99
2023-03-13T09:49:43.346Z,-5.15
2023-03-13T09:52:19.754Z,-5.31
2023-03-13T09:55:03.704Z,-5.49
2023-03-13T09:57:47.175Z,-5.75
2023-03-13T10:00:28.425Z,-6.04
2023-03-13T10:02:59.734Z,-6.30
2023-03-13T10:05:30.487Z,-6.44
2023-03-13T10:08:16.394Z,-6.60
2023-03-13T10:11:11.415Z,-6.63
2023-03-13T10:13:52.120Z,-6.64
2023-03-13T10:16:40.599Z,-6.63
2023-03-13T10:19:16.273Z,-6.75
2023-03-13T10:21:54.062Z,-6.87
2023-03-13T10:24:39.070Z,-6.96
2023-03-13T10:27:10.204Z,-7.07
2023-03-13T10:29:39.365Z,-7.10
2023-03-13T10:32:10.891Z,-7.17
2023-03-13T10:34:53.857Z,-7.26
2023-03-13T10:37:31.292Z,-7.27
2023-03-13T10:40:25.858Z,-7.27
2023-03-13T10:43:03.528Z,-7.40
2023-03-13T10:45:36.295Z,-7.59
2023-03-13T10:48:12.028Z,-7.69
2023-03-13T10:50:45.710Z,-7.77
2023-03-13T10:53:31.485Z,-7.86
2023-03-13T10:56:13.934Z,-7.93
2023-03-13T10:58:53.856Z,-8.04
2023-03-13T11:01:34.478Z,-8.09
2023-03-13T11:04:31.033Z,-8.17
2023-03-13T11:07:06.519Z,-8.24
2023-03-13T11:09:35.397Z,-8.31
2023-03-13T11:12:21.689Z,-8.36
2023-03-13T11:15:01.219Z,-8.44
2023-03-13T11:17:34.835Z,-8.36
2023-03-13T11:20:29.298Z,-8.34
2023-03-13T11:23:16.365Z,-8.33
2023-03-13T11:26:10.385Z,-8.32
2023-03-13T11:28:52.618Z,-8.12
2023-03-13T11:31:44.626Z,-8.07
2023-03-13T11:34:38.936Z,-8.11
2023-03-13T11:37:15.165Z,-8.05
2023-03-13T11:39:50.152Z,-8.04
2023-03-13T11:42:46.367Z,-8.12
2023-03-13T11:45:39.912Z,-8.25
2023-03-13T11:48:36.190Z,-8.37
2023-03-13T11:51:14.750Z,-8.48
2023-03-13T11:53:52.696Z,-8.53
2023-03-13T11:56:35.694Z,-8.58
2023-03-13T11:59:35.421Z,-8.62
2023-03-13T12:02:19.382Z,-8.62
2023-03-13T12:05:02.833Z,-8.60
2023-03-13T12:07:53.697Z,-8.63
2023-03-13T12:10:31.948Z,-8.67
2023-03-13T12:13:21.139Z,-8.64
2023-03-13T12:15:58.146Z,-8.64
2023-03-13T12:18:41.779Z,-8.61
2023-03-13T12:21:23.924Z,-8.58
2023-03-13T12:24:20.771Z,-8.50
2023-03-13T12:27:05.841Z,-8.61
2023-03-13T12:30:09.803Z,-8.48
2023-03-13T12:32:44.995Z,-8.43
2023-03-13T12:35:13.804Z,-8.38
2023-03-13T12:37:56.174Z,-8.38
2023-03-13T12:40:46.589Z,-8.38
2023-03-13T12:43:23.060Z,-8.42
2023-03-13T12:45:58.034Z,-8.46
2023-03-13T12:48:59.846Z,-8.52
2023-03-13T12:51:47.232Z,-8.50
2023-03-13T12:54:57.534Z,-8.51
2023-03-13T12:57:44.318Z,-8.51
2023-03-13T13:00:21.208Z,-8.54
2023-03-13T13:03:03.603Z,-8.55
2023-03-13T13:05:32.995Z,-8.60
2023-03-13T13:08:02.300Z,-8.57
2023-03-13T13:10:31.236Z,-8.59
2023-03-13T13:13:15.240Z,-8.60
2023-03-13T13:16:19.793Z,-8.67
2023-03-13T13:18:48.638Z,-8.67
2023-03-13T13:21:18.746Z,-8.72
2023-03-13T13:23:48.775Z,-8.87
2023-03-13T13:26:37.985Z,-8.88
2023-03-13T13:29:13.047Z,-8.94
2023-03-13T13:32:02.090Z,-8.98
2023-03-13T13:34:36.969Z,-9.04
2023-03-13T13:37:32.169Z,-9.09
2023-03-13T13:40:32.418Z,-9.11
2023-03-13T13:43:03.622Z,-9.10
2023-03-13T13:45:39.450Z,-9.19
2023-03-13T13:48:37.010Z,-9.06
2023-03-13T13:51:12.591Z,-9.04
2023-03-13T13:53:44.548Z,-9.04
2023-03-13T13:56:44.738Z,-9.01
2023-03-13T13:59:23.023Z,-8.97
2023-03-13T14:02:17.756Z,-8.95
2023-03-13T14:05:01.477Z,-8.88
2023-03-13T14:07:36.080Z,-8.90
2023-03-13T14:10:17.353Z,-8.78
2023-03-13T14:12:58.867Z,-8.72
2023-03-13T14:15:36.569Z,-8.65
2023-03-13T14:18:27.568Z,-8.50
2023-03-13T14:20:59.492Z,-8.43
2023-03-13T14:23:35.330Z,-8.40
2023-03-13T14:26:43.367Z,-8.37
2023-03-13T14:29:26.382Z,-8.36
2023-03-13T14:31:58.089Z,-8.34
2023-03-13T14:34:32.179Z,-8.34
2023-03-13T14:37:17.309Z,-8.33
2023-03-13T14:39:49.461Z,-8.34
2023-03-13T14:42:19.675Z,-8.35
2023-03-13T14:44:50.783Z,-8.35
2023-03-13T14:47:32.142Z,-8.31
2023-03-13T14:50:05.013Z,-8.26
2023-03-13T14:52:34.763Z,-8.26
2023-03-13T14:55:08.422Z,-8.25
2023-03-13T14:57:57.087Z,-8.27
2023-03-13T15:00:45.367Z,-8.25
2023-03-13T15:03:26.414Z,-8.18
2023-03-13T15:06:13.752Z,-8.19
2023-03-13T15:08:45.598Z,-8.25
2023-03-13T15:11:34.514Z,-8.20
2023-03-13T15:14:03.410Z,-8.21
2023-03-13T15:16:32.274Z,-8.08
2023-03-13T15:19:01.339Z,-8.08
2023-03-13T15:21:35.515Z,-8.08
2023-03-13T15:24:14.005Z,-8.06
2023-03-13T15:26:42.828Z,-8.11
2023-03-13T15:29:14.697Z,-8.09
2023-03-13T15:31:43.580Z,-8.10
2023-03-13T15:34:14.591Z,-8.12
2023-03-13T15:36:43.856Z,-8.10
2023-03-13T15:39:23.552Z,-8.11
2023-03-13T15:41:52.372Z,-8.09
2023-03-13T15:44:21.353Z,-8.10
2023-03-13T15:46:50.124Z,-8.09
2023-03-13T15:49:18.986Z,-8.07
2023-03-13T15:51:48.088Z,-8.06
2023-03-13T15:54:16.937Z,-8.07
2023-03-13T15:56:45.833Z,-8.06
2023-03-13T15:59:16.942Z,-8.02
2023-03-13T16:01:46.605Z,-8.05
2023-03-13T16:04:15.591Z,-8.00
2023-03-13T16:06:44.478Z,-7.96
2023-03-13T16:09:13.505Z,-7.95
2023-03-13T16:11:42.243Z,-7.92
2023-03-13T16:14:10.946Z,-7.94
2023-03-13T16:49:50.053Z,-8.00
2023-03-13T16:52:19.411Z,-7.93
2023-03-13T16:54:48.231Z,-7.89
2023-03-13T16:57:20.880Z,-7.85
2023-03-13T16:59:49.655Z,-7.79
2023-03-13T17:02:21.455Z,-7.74
2023-03-13T17:04:50.456Z,-7.68
2023-03-13T17:07:25.006Z,-7.65
2023-03-13T17:09:54.405Z,-7.60
2023-03-13T17:12:23.150Z,-7.58
2023-03-13T17:14:52.178Z,-7.53
2023-03-13T17:17:23.701Z,-7.54
2023-03-13T17:19:52.501Z,-7.48
2023-03-13T17:22:21.699Z,-7.45
2023-03-13T17:24:50.452Z,-7.45
2023-03-13T17:27:19.390Z,-7.45
2023-03-13T17:29:48.045Z,-7.43
2023-03-13T17:32:16.861Z,-7.40
2023-03-13T17:34:46.225Z,-7.42
2023-03-13T17:37:17.813Z,-7.39
2023-03-13T17:39:47.153Z,-7.35
2023-03-13T17:45:28.062Z,-7.40
2023-03-13T17:47:57.236Z,-7.40
2023-03-13T17:50:28.509Z,-7.56
2023-03-13T17:52:57.702Z,-7.47
2023-03-13T17:55:26.537Z,-7.39
2023-03-13T17:57:55.380Z,-7.44
2023-03-13T18:00:32.598Z,-7.46
2023-03-13T18:03:02.015Z,-7.54
2023-03-13T18:05:30.968Z,-7.53
2023-03-13T18:07:59.797Z,-7.57
2023-03-13T18:10:30.459Z,-7.54
2023-03-13T18:12:59.485Z,-7.54
2023-03-13T18:15:28.956Z,-7.50
2023-03-13T18:17:58.176Z,-7.50
2023-03-13T18:20:30.938Z,-7.50
2023-03-13T18:23:01.056Z,-7.54
2023-03-13T18:25:30.490Z,-7.51
2023-03-13T18:28:00.921Z,-7.66
2023-03-13T18:30:29.739Z,-7.49
2023-03-13T18:32:58.575Z,-7.56
2023-03-13T18:35:27.470Z,-7.64
2023-03-13T18:37:56.217Z,-7.43
2023-03-13T18:40:29.195Z,-7.39
2023-03-13T18:42:58.079Z,-7.39
2023-03-13T18:45:27.790Z,-7.31
2023-03-13T18:47:56.759Z,-7.25
2023-03-13T18:50:31.195Z,-7.23
2023-03-13T18:53:01.097Z,-7.19
2023-03-13T18:55:31.897Z,-7.15
2023-03-13T18:58:00.760Z,-7.23
2023-03-13T19:00:31.931Z,-7.25
2023-03-13T19:03:00.985Z,-7.35
2023-03-13T19:05:29.909Z,-7.40
2023-03-13T19:07:58.648Z,-7.53
2023-03-13T19:10:30.354Z,-7.40
2023-03-13T19:12:59.240Z,-7.41
2023-03-13T19:15:30.962Z,-7.43
2023-03-13T19:18:03.704Z,-7.39
2023-03-13T19:20:32.947Z,-7.42
2023-03-13T19:23:01.798Z,-7.43
2023-03-13T19:25:30.627Z,-7.50
2023-03-13T19:27:59.414Z,-7.48
2023-03-13T19:30:28.466Z,-7.44
2023-03-13T19:32:57.327Z,-7.48
2023-03-13T19:35:26.415Z,-7.39
2023-03-13T19:37:55.188Z,-7.37
2023-03-13T19:40:29.230Z,-7.36
2023-03-13T19:42:57.960Z,-7.38
2023-03-13T19:45:28.335Z,-7.40
2023-03-13T19:47:57.110Z,-7.40
2023-03-13T19:50:30.337Z,-7.39
2023-03-13T19:52:59.059Z,-7.35
2023-03-13T19:55:27.947Z,-7.34
2023-03-13T19:57:56.694Z,-7.34
2023-03-13T20:00:30.009Z,-7.34
2023-03-13T20:02:59.363Z,-7.35
2023-03-13T20:05:28.210Z,-7.35
2023-03-13T20:07:57.956Z,-7.37
2023-03-13T20:10:26.770Z,-7.37
2023-03-13T20:12:55.708Z,-7.38
2023-03-13T20:15:24.513Z,-7.40
2023-03-13T20:17:53.322Z,-7.51
2023-03-13T20:20:24.843Z,-7.40
2023-03-13T20:22:54.700Z,-7.45
2023-03-13T20:25:24.794Z,-7.44
2023-03-13T20:27:54.168Z,-7.59
2023-03-13T20:30:23.698Z,-7.62
2023-03-13T20:32:59.328Z,-7.48
2023-03-13T20:35:29.473Z,-7.49
2023-03-13T20:38:00.282Z,-7.51
2023-03-13T20:40:29.557Z,-7.68
2023-03-13T20:42:59.717Z,-7.55
2023-03-13T20:45:30.865Z,-7.57
2023-03-13T20:48:00.130Z,-7.64
2023-03-13T20:50:29.022Z,-7.57
2023-03-13T20:52:57.870Z,-7.60
2023-03-13T20:55:26.680Z,-7.64
2023-03-13T20:57:55.402Z,-7.64
2023-03-13T21:00:25.349Z,-7.67
2023-03-13T21:02:54.916Z,-7.68
2023-03-13T21:05:23.884Z,-7.68
2023-03-13T21:07:52.856Z,-7.68
2023-03-13T21:10:21.944Z,-7.64
2023-03-13T21:12:50.825Z,-7.62
2023-03-13T21:15:19.698Z,-7.62
2023-03-13T21:17:48.460Z,-7.68
2023-03-13T21:20:17.444Z,-7.67
2023-03-13T21:22:46.298Z,-7.69
2023-03-13T21:25:15.786Z,-7.70
2023-03-13T21:27:44.845Z,-7.70
2023-03-13T21:30:20.128Z,-7.73
2023-03-13T21:32:49.645Z,-7.77
2023-03-13T21:35:18.599Z,-7.82
2023-03-13T21:37:47.418Z,-7.69
2023-03-13T21:40:16.259Z,-7.67
2023-03-13T21:42:45.045Z,-7.68
2023-03-13T21:45:13.801Z,-7.78
2023-03-13T21:47:42.558Z,-7.71
2023-03-13T21:50:12.317Z,-7.71
2023-03-13T21:52:42.813Z,-7.73
2023-03-13T21:55:13.632Z,-7.76
2023-03-13T21:57:42.506Z,-7.75
2023-03-13T22:00:15.113Z,-7.77
2023-03-13T22:02:44.730Z,-7.79
2023-03-13T22:05:13.490Z,-7.83
2023-03-13T22:07:42.327Z,-7.83
2023-03-13T22:10:11.733Z,-7.82
2023-03-13T22:12:40.754Z,-7.87
2023-03-13T22:15:10.297Z,-7.84
2023-03-13T22:17:39.271Z,-7.92
2023-03-13T22:20:09.044Z,-7.89
2023-03-13T22:22:38.058Z,-7.94
2023-03-13T22:25:07.342Z,-7.84
2023-03-13T22:27:36.138Z,-7.86
2023-03-13T22:30:05.564Z,-7.86
2023-03-13T22:32:34.267Z,-7.91
2023-03-13T22:35:03.165Z,-7.92
2023-03-13T22:37:32.080Z,-7.99
2023-03-13T22:40:00.871Z,-8.01
2023-03-13T22:42:29.744Z,-8.05
2023-03-13T22:44:58.611Z,-8.09
2023-03-13T22:47:27.480Z,-8.24
2023-03-13T22:49:56.349Z,-8.20
2023-03-13T22:52:31.236Z,-8.36
2023-03-13T22:55:00.134Z,-8.25
2023-03-13T22:57:29.711Z,-8.33
2023-03-13T22:59:59.796Z,-8.39
2023-03-13T23:02:29.882Z,-8.45
2023-03-13T23:05:01.587Z,-8.48
2023-03-13T23:07:32.826Z,-8.48
2023-03-13T23:10:01.650Z,-8.51
2023-03-13T23:12:31.577Z,-8.48
2023-03-13T23:15:00.587Z,-8.50
2023-03-13T23:17:34.211Z,-8.60
2023-03-13T23:20:14.059Z,-8.59
2023-03-13T23:22:48.326Z,-8.61
2023-03-13T23:25:18.670Z,-8.61
2023-03-13T23:27:47.421Z,-8.65
2023-03-13T23:30:18.306Z,-8.65
2023-03-13T23:32:49.130Z,-8.81
2023-03-13T23:35:18.151Z,-8.63
2023-03-13T23:37:53.818Z,-8.62
2023-03-13T23:40:24.042Z,-8.59
2023-03-13T23:42:52.797Z,-8.58
2023-03-13T23:45:21.578Z,-8.58
2023-03-13T23:47:54.009Z,-8.57
2023-03-13T23:50:23.777Z,-8.52
2023-03-13T23:52:52.630Z,-8.45
2023-03-13T23:55:21.359Z,-8.37
2023-03-13T23:57:51.214Z,-8.28
